createdAt,value
2019-02-16T00:04:31.336Z,4.90
2019-02-16T00:09:37.592Z,4.55
2019-02-16T00:14:43.809Z,4.83
2019-02-16T00:19:50.020Z,5.50
2019-02-16T00:24:56.231Z,5.23
2019-02-16T00:30:02.450Z,4.90
2019-02-16T00:35:08.731Z,4.83
2019-02-16T00:40:15.049Z,5.20
2019-02-16T00:45:21.336Z,4.80
2019-02-16T00:50:27.554Z,4.60
2019-02-16T00:55:33.809Z,4.80
2019-02-16T01:00:40.042Z,5.10
2019-02-16T01:05:46.294Z,4.90
2019-02-16T01:10:52.497Z,4.55
2019-02-16T01:15:58.666Z,5.13
2019-02-16T01:21:05.593Z,5.77
2019-02-16T01:26:11.900Z,5.17
2019-02-16T01:31:18.155Z,5.73
2019-02-16T01:36:24.474Z,5.80
2019-02-16T01:41:30.831Z,5.20
2019-02-16T01:46:37.124Z,5.80
2019-02-16T01:51:43.436Z,5.20
2019-02-16T01:56:49.712Z,5.40
2019-02-16T02:01:56.020Z,5.10
2019-02-16T02:07:02.824Z,5.70
2019-02-16T02:12:09.195Z,5.27
2019-02-16T02:17:15.525Z,5.37
2019-02-16T02:22:21.808Z,5.50
2019-02-16T02:27:28.196Z,5.53
2019-02-16T02:32:34.482Z,5.72
2019-02-16T02:37:40.793Z,8.40
2019-02-16T02:42:47.098Z,11.20
2019-02-16T02:47:53.365Z,9.57
2019-02-16T02:52:59.768Z,8.63
2019-02-16T02:58:06.233Z,6.90
2019-02-16T03:03:12.513Z,6.60
2019-02-16T03:08:18.991Z,6.33
2019-02-16T03:13:25.273Z,6.05
2019-02-16T03:18:31.614Z,6.35
2019-02-16T03:23:37.871Z,6.20
2019-02-16T03:28:51.406Z,5.67
2019-02-16T03:34:05.935Z,6.10
2019-02-16T03:39:20.971Z,6.33
2019-02-16T03:44:27.276Z,5.37
2019-02-16T03:49:33.585Z,5.40
2019-02-16T03:54:40.058Z,5.53
2019-02-16T03:59:46.500Z,5.78
2019-02-16T04:04:52.815Z,6.10
2019-02-16T04:09:59.195Z,5.90
2019-02-16T04:15:05.535Z,6.12
2019-02-16T04:20:11.734Z,6.58
2019-02-16T04:25:17.950Z,5.67
2019-02-16T04:30:24.224Z,5.50
2019-02-16T04:35:30.392Z,6.03
2019-02-16T04:40:36.740Z,5.97
2019-02-16T04:45:42.929Z,5.83
2019-02-16T04:50:49.400Z,5.63
2019-02-16T04:55:55.611Z,6.12
2019-02-16T05:01:01.868Z,6.23
2019-02-16T05:06:08.160Z,6.43
2019-02-16T05:11:14.334Z,6.17
2019-02-16T05:16:20.538Z,5.73
2019-02-16T05:21:26.708Z,5.43
2019-02-16T05:26:33.003Z,6.70
2019-02-16T05:31:39.228Z,5.63
2019-02-16T05:36:45.513Z,6.05
2019-02-16T05:41:51.684Z,6.83
2019-02-16T05:46:58.036Z,6.40
2019-02-16T05:52:05.236Z,6.10
2019-02-16T05:57:11.553Z,6.67
2019-02-16T06:02:17.810Z,6.27
2019-02-16T06:07:23.984Z,7.83
2019-02-16T06:12:30.203Z,6.70
2019-02-16T06:17:36.376Z,6.58
2019-02-16T06:22:42.585Z,7.62
2019-02-16T06:27:50.420Z,6.80
2019-02-16T06:32:56.713Z,6.62
2019-02-16T06:38:02.980Z,7.00
2019-02-16T06:43:09.223Z,7.27
2019-02-16T06:48:15.498Z,7.05
2019-02-16T06:53:22.705Z,7.60
2019-02-16T06:58:29.014Z,6.73
2019-02-16T07:03:35.221Z,7.20
2019-02-16T07:08:43.974Z,7.73
2019-02-16T07:13:49.738Z,7.60
2019-02-16T07:19:02.840Z,7.40
2019-02-16T07:24:09.240Z,7.27
2019-02-16T07:29:15.613Z,7.60
2019-02-16T07:34:21.894Z,6.97
2019-02-16T07:39:28.149Z,7.93
2019-02-16T07:44:53.326Z,7.90
2019-02-16T07:50:30.403Z,8.40
2019-02-16T07:56:01.499Z,9.48
2019-02-16T08:01:33.987Z,9.23
2019-02-16T08:07:02.939Z,9.45
2019-02-16T08:12:22.182Z,10.33
2019-02-16T08:17:53.106Z,9.25
2019-02-16T08:23:21.219Z,8.97
2019-02-16T08:28:52.611Z,8.88
2019-02-16T08:34:15.840Z,9.07
2019-02-16T08:39:29.730Z,9.03
2019-02-16T08:44:50.156Z,8.47
2019-02-16T08:50:14.003Z,8.43
2019-02-16T08:55:35.779Z,8.13
2019-02-16T09:01:01.250Z,7.53
2019-02-16T09:06:26.576Z,8.00
2019-02-16T09:12:05.838Z,8.03
2019-02-16T09:17:33.247Z,8.08
2019-02-16T09:23:07.361Z,8.13
2019-02-16T09:28:21.999Z,9.17
2019-02-16T09:33:47.198Z,9.05
2019-02-16T09:39:10.703Z,9.00
2019-02-16T09:44:34.440Z,8.90
2019-02-16T09:49:58.260Z,10.50
2019-02-16T09:55:39.835Z,10.27
2019-02-16T10:01:10.950Z,10.73
2019-02-16T10:06:37.603Z,10.60
2019-02-16T10:11:57.804Z,11.17
2019-02-16T10:17:34.927Z,10.70
2019-02-16T10:23:18.296Z,11.47
2019-02-16T10:28:39.721Z,11.67
2019-02-16T10:33:55.659Z,11.87
2019-02-16T10:39:36.474Z,12.67
2019-02-16T10:44:59.746Z,12.73
2019-02-16T10:50:21.715Z,12.70
2019-02-16T10:55:45.313Z,13.03
2019-02-16T11:01:13.316Z,11.93
2019-02-16T11:06:41.588Z,13.85
2019-02-16T11:12:21.557Z,14.20
2019-02-16T11:17:45.252Z,13.90
2019-02-16T11:22:58.441Z,13.17
2019-02-16T11:28:27.135Z,13.58
2019-02-16T11:34:01.096Z,14.43
2019-02-16T11:39:26.447Z,14.23
2019-02-16T11:45:00.742Z,12.87
2019-02-16T11:50:24.538Z,15.07
2019-02-16T11:55:58.457Z,14.97
2019-02-16T12:01:24.129Z,15.90
2019-02-16T12:06:43.511Z,14.57
2019-02-16T12:12:14.578Z,14.93
2019-02-16T12:17:38.643Z,14.83
2019-02-16T12:22:55.454Z,14.77
2019-02-16T12:28:23.870Z,14.83
2019-02-16T12:33:41.711Z,15.43
2019-02-16T12:39:04.851Z,14.53
2019-02-16T12:44:32.862Z,15.95
2019-02-16T12:50:04.148Z,15.87
2019-02-16T12:55:38.446Z,15.45
2019-02-16T13:01:02.097Z,16.10
2019-02-16T13:06:26.034Z,15.23
2019-02-16T13:11:51.339Z,17.40
2019-02-16T13:17:15.534Z,18.63
2019-02-16T13:22:43.623Z,17.03
2019-02-16T13:28:07.090Z,15.40
2019-02-16T13:33:23.228Z,15.70
2019-02-16T13:38:39.668Z,16.27
2019-02-16T13:44:04.863Z,16.60
2019-02-16T13:49:22.550Z,15.77
2019-02-16T13:54:40.627Z,16.50
2019-02-16T14:00:04.100Z,15.67
2019-02-16T14:05:16.779Z,16.80
2019-02-16T14:10:31.859Z,16.57
2019-02-16T14:15:52.211Z,15.53
2019-02-16T14:20:58.555Z,16.45
2019-02-16T14:26:05.433Z,16.00
2019-02-16T14:31:12.412Z,16.93
2019-02-16T14:36:19.426Z,14.83
2019-02-16T14:41:25.793Z,13.20
2019-02-16T14:46:32.116Z,12.70
2019-02-16T14:51:38.327Z,12.53
2019-02-16T14:56:44.563Z,12.63
2019-02-16T15:01:50.801Z,13.33
2019-02-16T15:06:58.173Z,14.43
2019-02-16T15:12:05.395Z,13.68
2019-02-16T15:17:11.633Z,14.43
2019-02-16T15:22:17.951Z,14.90
2019-02-16T15:27:24.210Z,14.83
2019-02-16T15:32:30.429Z,15.70
2019-02-16T15:37:36.664Z,16.43
2019-02-16T15:42:42.873Z,16.33
2019-02-16T15:47:49.110Z,15.37
2019-02-16T15:52:55.422Z,14.70
2019-02-16T15:58:01.745Z,14.53
2019-02-16T16:03:08.416Z,14.43
2019-02-16T16:08:33.633Z,14.03
2019-02-16T16:13:57.444Z,15.03
2019-02-16T16:19:34.418Z,15.20
2019-02-16T16:25:02.630Z,15.40
2019-02-16T16:30:28.047Z,15.10
2019-02-16T16:35:40.459Z,14.50
2019-02-16T16:40:53.818Z,14.70
2019-02-16T16:46:37.080Z,15.13
2019-02-16T16:52:01.532Z,15.33
2019-02-16T16:57:29.814Z,14.93
2019-02-16T17:02:53.123Z,15.87
2019-02-16T17:08:18.388Z,19.17
2019-02-16T17:13:40.089Z,24.53
2019-02-16T17:19:09.340Z,24.40
2019-02-16T17:24:27.864Z,21.68
2019-02-16T17:29:53.050Z,22.20
2019-02-16T17:35:15.091Z,18.87
2019-02-16T17:40:46.266Z,20.63
2019-02-16T17:46:14.233Z,25.03
2019-02-16T17:51:33.088Z,24.52
2019-02-16T17:57:16.541Z,21.93
2019-02-16T18:02:42.647Z,22.47
2019-02-16T18:08:17.091Z,22.20
2019-02-16T18:13:42.435Z,21.90
2019-02-16T18:19:03.002Z,21.40
2019-02-16T18:24:43.413Z,21.33
2019-02-16T18:30:17.464Z,22.53
2019-02-16T18:35:42.714Z,21.33
2019-02-16T18:41:00.449Z,20.53
2019-02-16T18:46:22.330Z,19.50
2019-02-16T18:51:37.931Z,19.90
2019-02-16T18:57:21.328Z,21.43
2019-02-16T19:03:04.547Z,21.00
2019-02-16T19:08:32.071Z,23.05
2019-02-16T19:13:46.590Z,24.00
2019-02-16T19:19:24.071Z,22.17
2019-02-16T19:24:37.233Z,21.68
2019-02-16T19:30:11.279Z,21.80
2019-02-16T19:35:36.506Z,21.48
2019-02-16T19:40:49.089Z,21.95
2019-02-16T19:46:05.873Z,20.80
2019-02-16T19:51:19.132Z,22.07
2019-02-16T19:56:36.239Z,21.40
2019-02-16T20:02:01.483Z,21.97
2019-02-16T20:07:32.800Z,21.93
2019-02-16T20:13:13.124Z,21.73
2019-02-16T20:18:47.435Z,20.70
2019-02-16T20:24:08.036Z,22.87
2019-02-16T20:29:36.899Z,22.70
2019-02-16T20:34:59.911Z,20.57
2019-02-16T20:40:19.711Z,21.55
2019-02-16T20:45:44.164Z,21.07
2019-02-16T20:51:07.884Z,22.13
2019-02-16T20:56:35.807Z,21.77
2019-02-16T21:01:59.468Z,20.57
2019-02-16T21:07:16.769Z,20.30
2019-02-16T21:12:40.454Z,21.03
2019-02-16T21:18:20.522Z,20.60
2019-02-16T21:23:52.341Z,20.30
2019-02-16T21:29:13.610Z,19.90
2019-02-16T21:34:30.826Z,19.13
2019-02-16T21:39:42.741Z,20.77
2019-02-16T21:45:08.181Z,21.53
2019-02-16T21:50:42.238Z,28.53
2019-02-16T21:56:08.927Z,29.07
2019-02-16T22:01:46.395Z,24.23
2019-02-16T22:07:29.928Z,22.80
2019-02-16T22:12:54.032Z,25.62
2019-02-16T22:18:00.312Z,26.37
2019-02-16T22:23:07.589Z,25.62
2019-02-16T22:28:18.689Z,26.95
2019-02-16T22:33:21.823Z,26.15
2019-02-16T22:38:28.032Z,25.23
2019-02-16T22:43:34.298Z,25.47
2019-02-16T22:48:40.593Z,27.98
2019-02-16T22:53:46.921Z,30.67
2019-02-16T22:58:53.227Z,27.05
2019-02-16T23:03:59.441Z,27.77
2019-02-16T23:09:11.810Z,26.93
2019-02-16T23:14:18.255Z,28.13
2019-02-16T23:19:24.519Z,24.80
2019-02-16T23:24:30.766Z,26.60
2019-02-16T23:29:37.093Z,24.87
2019-02-16T23:34:43.332Z,25.82
2019-02-16T23:39:49.654Z,23.83
2019-02-16T23:44:55.927Z,23.47
2019-02-16T23:50:02.236Z,24.67
2019-02-16T23:55:08.876Z,25.43
